Time;durP1;ratioP1;P1;durP2;ratioP2;P2;SDS_P1;SDS_P2;PMS_P1;PMS_P2;Temp;Humidity;BMP_temperature;BMP_pressure;BME280_temperature;BME280_humidity;BME280_pressure;Samples;Min_cycle;Max_cycle;Signal;HPM_P1;HPM_P2
2023/09/20 00:02:01;;;;;;;3.13;1.50;;;;;;;19.25;36.50;100649.22;4919751;29;20265;-79
2023/09/20 00:04:29;;;;;;;2.97;1.20;;;;;;;19.23;36.60;100650.47;4920256;29;20787;-80
2023/09/20 00:06:59;;;;;;;2.78;1.25;;;;;;;19.25;36.90;100648.34;4918609;29;20059;-78
2023/09/20 00:09:30;;;;;;;2.55;1.10;;;;;;;19.24;36.87;100649.41;4920490;29;20126;-79
2023/09/20 00:11:58;;;;;;;2.85;1.20;;;;;;;19.21;36.92;100647.88;4915761;29;20062;-79
2023/09/20 00:14:26;;;;;;;2.97;1.30;;;;;;;19.22;36.85;100645.97;4918682;29;20353;-80
2023/09/20 00:16:54;;;;;;;4.25;1.50;;;;;;;19.20;36.98;100646.19;4918571;29;20059;-80
2023/09/20 00:19:22;;;;;;;3.40;1.30;;;;;;;19.21;37.21;100653.41;4917897;29;20051;-80
2023/09/20 00:21:50;;;;;;;2.67;1.40;;;;;;;19.21;36.77;100647.03;4916998;29;20065;-80
2023/09/20 00:24:19;;;;;;;3.38;1.40;;;;;;;19.21;37.21;100647.88;4918301;29;20583;-80
2023/09/20 00:26:47;;;;;;;3.10;1.50;;;;;;;19.18;37.01;100647.38;4916851;29;20047;-79
2023/09/20 00:29:15;;;;;;;2.28;1.20;;;;;;;19.18;36.87;100644.63;4914074;29;20043;-79
2023/09/20 00:31:43;;;;;;;3.83;1.35;;;;;;;19.18;37.46;100639.06;4916753;29;20089;-80
2023/09/20 00:34:13;;;;;;;3.28;1.20;;;;;;;19.17;37.04;100643.75;4937171;28;20598;-79
2023/09/20 00:36:41;;;;;;;3.88;1.30;;;;;;;19.16;37.44;100642.03;4917571;29;20059;-79
2023/09/20 00:39:10;;;;;;;2.88;1.60;;;;;;;19.17;37.47;100642.91;4920034;29;20073;-78
2023/09/20 00:41:39;;;;;;;2.47;1.48;;;;;;;19.18;37.19;100644.63;4918649;29;20151;-79
2023/09/20 00:44:07;;;;;;;2.95;1.38;;;;;;;19.15;37.12;100640.31;4924712;28;20146;-79
2023/09/20 00:46:38;;;;;;;3.63;1.20;;;;;;;19.14;37.69;100640.50;4935518;28;20051;-80
2023/09/20 00:49:06;;;;;;;3.05;1.30;;;;;;;19.13;37.32;100634.09;4918353;28;20111;-80
2023/09/20 00:51:34;;;;;;;2.83;1.50;;;;;;;19.13;37.48;100636.03;4917663;29;20138;-79
2023/09/20 00:54:04;;;;;;;3.47;1.33;;;;;;;19.11;37.47;100630.69;4917410;29;20150;-79
2023/09/20 00:56:32;;;;;;;2.15;1.10;;;;;;;19.11;37.76;100633.44;4916500;29;20106;-79
2023/09/20 00:59:06;;;;;;;2.85;1.20;;;;;;;19.11;37.83;100641.78;4916688;29;20051;-79
2023/09/20 01:01:35;;;;;;;4.70;1.30;;;;;;;19.08;37.82;100644.06;4915870;29;20510;-79
2023/09/20 01:04:05;;;;;;;4.03;1.42;;;;;;;19.09;37.57;100645.78;4918398;29;20341;-80
2023/09/20 01:06:34;;;;;;;2.90;1.10;;;;;;;19.08;37.88;100638.50;4914402;29;20042;-80
2023/09/20 01:09:03;;;;;;;3.45;1.23;;;;;;;19.04;37.80;100637.19;4934325;29;20057;-79
2023/09/20 01:11:32;;;;;;;2.80;1.40;;;;;;;19.03;37.73;100639.13;4917338;29;20063;-79
2023/09/20 01:14:02;;;;;;;3.22;1.30;;;;;;;19.02;37.77;100636.53;4915458;29;20090;-80
2023/09/20 01:16:33;;;;;;;3.53;1.30;;;;;;;19.00;37.84;100636.72;4918511;29;20171;-78
2023/09/20 01:19:05;;;;;;;3.22;1.40;;;;;;;18.99;37.65;100634.13;4941321;28;20050;-78
2023/09/20 01:21:40;;;;;;;2.65;1.23;;;;;;;18.97;38.24;100631.53;4926525;28;21024;-80
2023/09/20 01:24:09;;;;;;;2.15;1.10;;;;;;;18.96;37.84;100632.63;4924951;29;20051;-80
2023/09/20 01:26:39;;;;;;;3.00;1.27;;;;;;;18.96;37.87;100627.09;4922444;29;20591;-79
2023/09/20 01:29:07;;;;;;;3.35;1.45;;;;;;;18.91;38.13;100621.25;4922876;29;20063;-79
2023/09/20 01:31:36;;;;;;;4.13;1.70;;;;;;;18.90;37.80;100623.16;4918137;29;20063;-80
2023/09/20 01:34:04;;;;;;;3.90;1.50;;;;;;;18.89;38.50;100629.75;4924024;29;20056;-80
2023/09/20 01:36:32;;;;;;;5.32;1.63;;;;;;;18.88;38.02;100627.19;4917470;29;20054;-80
2023/09/20 01:39:08;;;;;;;2.95;1.38;;;;;;;18.88;38.25;100628.03;4919744;28;20048;-79
2023/09/20 01:41:36;;;;;;;3.78;1.50;;;;;;;18.84;38.39;100623.09;4939502;29;20043;-79
2023/09/20 01:44:06;;;;;;;2.72;1.20;;;;;;;18.83;38.19;100627.75;4923429;28;20065;-78
2023/09/20 01:46:36;;;;;;;2.33;1.27;;;;;;;18.82;38.51;100619.63;4922695;29;20043;-78
2023/09/20 01:49:06;;;;;;;3.10;1.33;;;;;;;18.82;38.56;100623.28;4940387;29;20048;-80
2023/09/20 01:51:34;;;;;;;3.20;1.40;;;;;;;18.80;38.87;100625.38;4922860;29;20051;-80
2023/09/20 01:54:04;;;;;;;2.97;1.30;;;;;;;18.81;38.66;100623.47;4923074;28;20492;-78
2023/09/20 01:56:33;;;;;;;3.22;1.40;;;;;;;18.78;38.64;100624.72;4939440;28;20142;-79
2023/09/20 01:59:05;;;;;;;3.20;1.40;;;;;;;18.77;38.71;100619.38;4919429;29;20043;-80
2023/09/20 02:01:35;;;;;;;2.35;1.30;;;;;;;18.75;38.64;100607.59;4917129;29;20075;-80
2023/09/20 02:04:03;;;;;;;3.13;1.30;;;;;;;18.74;38.80;100606.75;4937048;28;20589;-79
2023/09/20 02:06:31;;;;;;;2.22;1.10;;;;;;;18.73;39.04;100602.25;4920578;29;20546;-79
2023/09/20 02:08:59;;;;;;;3.42;1.48;;;;;;;18.72;38.69;100597.75;4921716;29;20054;-79
2023/09/20 02:11:29;;;;;;;3.13;1.40;;;;;;;18.73;38.74;100601.38;4919141;29;20047;-79
2023/09/20 02:13:57;;;;;;;2.53;1.40;;;;;;;18.70;38.78;100601.78;4921283;29;20151;-79
2023/09/20 02:16:25;;;;;;;3.65;1.48;;;;;;;18.69;38.96;100595.38;4920789;29;20448;-81
2023/09/20 02:18:53;;;;;;;3.13;1.38;;;;;;;18.68;39.13;100599.22;4923685;29;20058;-81
2023/09/20 02:21:22;;;;;;;3.33;1.50;;;;;;;18.67;38.91;100596.63;4922803;29;20613;-81
2023/09/20 02:23:54;;;;;;;3.75;1.40;;;;;;;18.67;38.99;100605.81;4924844;29;20125;-83
2023/09/20 02:26:22;;;;;;;2.97;1.70;;;;;;;18.63;38.95;100611.94;4924023;29;20070;-82
2023/09/20 02:28:51;;;;;;;3.25;1.27;;;;;;;18.65;39.42;100602.34;4923830;28;20062;-82
2023/09/20 02:31:19;;;;;;;3.85;1.30;;;;;;;18.63;39.19;100606.41;4925886;29;20051;-81
2023/09/20 02:33:47;;;;;;;3.25;1.60;;;;;;;18.62;39.52;100607.44;4941158;29;20098;-82
2023/09/20 02:36:16;;;;;;;2.85;1.55;;;;;;;18.61;39.19;100587.19;4944229;28;20047;-83
2023/09/20 02:38:44;;;;;;;3.33;1.30;;;;;;;18.61;39.48;100591.88;4928759;28;20059;-82
2023/09/20 02:41:12;;;;;;;3.33;1.38;;;;;;;18.60;39.29;100590.16;4927570;29;20051;-83
2023/09/20 02:43:40;;;;;;;5.38;1.60;;;;;;;18.57;39.32;100588.59;4937482;29;20064;-82
2023/09/20 02:46:11;;;;;;;3.47;1.40;;;;;;;18.59;39.67;100592.06;4937696;29;20055;-82
2023/09/20 02:48:39;;;;;;;5.13;1.70;;;;;;;18.56;39.52;100586.03;4925697;29;20074;-83
2023/09/20 02:51:08;;;;;;;3.97;1.50;;;;;;;18.55;39.31;100574.13;4924755;29;20106;-80
2023/09/20 02:53:36;;;;;;;3.67;1.70;;;;;;;18.54;39.86;100580.69;4928099;29;20507;-83
2023/09/20 02:56:05;;;;;;;3.55;1.40;;;;;;;18.55;39.71;100587.09;4927900;29;20047;-83
2023/09/20 02:58:36;;;;;;;3.72;1.48;;;;;;;18.52;39.75;100580.88;4924770;29;20062;-83
2023/09/20 03:01:08;;;;;;;3.70;1.60;;;;;;;18.50;40.02;100576.59;4932090;29;20055;-82
2023/09/20 03:03:37;;;;;;;3.97;1.33;;;;;;;18.50;40.18;100580.22;4944020;29;20078;-80
2023/09/20 03:06:09;;;;;;;3.38;1.40;;;;;;;18.51;40.30;100581.94;4934574;29;20055;-80
2023/09/20 03:08:41;;;;;;;2.88;1.40;;;;;;;18.45;39.87;100576.28;4944467;29;20427;-80
2023/09/20 03:11:19;;;;;;;3.10;1.50;;;;;;;18.46;40.29;100581.63;4942053;29;20051;-81
2023/09/20 03:13:47;;;;;;;3.25;1.50;;;;;;;18.45;39.79;100567.97;4922481;29;20464;-84
2023/09/20 03:16:17;;;;;;;3.97;1.63;;;;;;;18.45;40.23;100568.84;4924061;29;20115;-82
2023/09/20 03:18:49;;;;;;;3.55;1.60;;;;;;;18.44;40.37;100571.78;4928238;29;20051;-81
2023/09/20 03:21:19;;;;;;;5.18;1.73;;;;;;;18.42;40.14;100563.66;4924186;29;20050;-83
2023/09/20 03:23:48;;;;;;;3.95;1.55;;;;;;;18.39;40.14;100561.25;4925782;29;20055;-81
2023/09/20 03:26:16;;;;;;;3.53;1.70;;;;;;;18.37;40.12;100565.31;4929487;28;20059;-83
2023/09/20 03:28:46;;;;;;;4.10;1.67;;;;;;;18.37;40.04;100563.38;4927022;29;20063;-83
2023/09/20 03:31:15;;;;;;;5.05;1.70;;;;;;;18.35;40.32;100554.41;4924705;29;20476;-82
2023/09/20 03:33:48;;;;;;;3.90;1.80;;;;;;;18.34;40.11;100549.91;4940386;28;20052;-84
2023/09/20 03:36:21;;;;;;;5.28;1.65;;;;;;;18.34;40.70;100549.06;4926790;29;20048;-83
2023/09/20 03:38:50;;;;;;;2.95;1.35;;;;;;;18.32;40.55;100552.00;4927109;29;20085;-84
2023/09/20 03:41:19;;;;;;;2.53;1.45;;;;;;;18.32;40.34;100552.00;4924887;29;20047;-83
2023/09/20 03:43:47;;;;;;;4.05;1.52;;;;;;;18.31;40.48;100543.88;4936642;29;20429;-82
2023/09/20 03:46:16;;;;;;;2.38;1.27;;;;;;;18.30;40.31;100544.97;4923230;29;20051;-83
2023/09/20 03:48:46;;;;;;;4.65;1.70;;;;;;;18.29;40.65;100537.69;4927389;28;20111;-83
2023/09/20 03:51:16;;;;;;;4.57;1.60;;;;;;;18.29;40.78;100538.56;4946928;28;20659;-84
2023/09/20 03:53:44;;;;;;;2.80;1.63;;;;;;;18.26;40.43;100533.41;4939580;29;20819;-82
2023/09/20 03:56:14;;;;;;;4.20;1.52;;;;;;;18.25;40.77;100528.03;4926991;29;20047;-84
2023/09/20 03:58:43;;;;;;;3.78;1.33;;;;;;;18.23;40.41;100528.22;4922603;29;20051;-83
2023/09/20 04:01:11;;;;;;;2.78;1.50;;;;;;;18.23;40.40;100527.38;4924063;29;20132;-82
2023/09/20 04:03:42;;;;;;;3.92;1.50;;;;;;;18.22;40.70;100529.31;4957190;28;20055;-83
2023/09/20 04:06:10;;;;;;;2.58;1.35;;;;;;;18.21;40.70;100523.94;4921456;29;20055;-83
2023/09/20 04:08:41;;;;;;;2.85;1.60;;;;;;;18.20;40.58;100520.31;4925370;29;20052;-83
2023/09/20 04:11:11;;;;;;;2.90;1.55;;;;;;;18.19;40.40;100520.50;4925883;29;20054;-83
2023/09/20 04:13:40;;;;;;;2.53;1.35;;;;;;;18.18;41.04;100514.09;4922906;28;20059;-82
2023/09/20 04:16:08;;;;;;;2.90;1.50;;;;;;;18.15;40.63;100512.56;4923734;29;20062;-83
2023/09/20 04:18:37;;;;;;;3.10;1.50;;;;;;;18.15;40.66;100509.81;4924985;29;20523;-82
2023/09/20 04:21:05;;;;;;;4.18;1.42;;;;;;;18.13;40.64;100503.63;4936928;28;20062;-82
2023/09/20 04:23:33;;;;;;;3.40;1.70;;;;;;;18.13;40.88;100506.38;4928128;29;20503;-82
2023/09/20 04:26:02;;;;;;;2.45;1.35;;;;;;;18.15;41.02;100509.81;4926767;29;20044;-82
2023/09/20 04:28:30;;;;;;;3.55;1.60;;;;;;;18.12;40.70;100499.13;4926749;29;20495;-84
2023/09/20 04:30:59;;;;;;;4.50;1.70;;;;;;;18.10;40.86;100498.47;4925567;29;20056;-83
2023/09/20 04:33:27;;;;;;;4.25;1.50;;;;;;;18.10;41.29;100506.75;4922979;29;20216;-83
2023/09/20 04:35:57;;;;;;;3.03;1.58;;;;;;;18.08;40.79;100502.47;4924870;29;20712;-84
2023/09/20 04:38:26;;;;;;;4.47;1.60;;;;;;;18.06;41.39;100505.41;4925959;29;20060;-84
2023/09/20 04:40:56;;;;;;;2.38;1.27;;;;;;;18.07;40.98;100506.28;4929258;29;20523;-83
2023/09/20 04:43:26;;;;;;;2.78;1.50;;;;;;;18.06;41.01;100497.09;4938903;29;20039;-82
2023/09/20 04:45:55;;;;;;;4.10;1.52;;;;;;;18.03;41.05;100499.41;4965878;28;20056;-82
2023/09/20 04:48:24;;;;;;;4.20;1.60;;;;;;;18.03;40.99;100496.66;4938333;29;20054;-82
2023/09/20 04:50:54;;;;;;;3.53;1.50;;;;;;;18.01;41.06;100505.13;4941568;29;20039;-83
2023/09/20 04:53:23;;;;;;;4.25;1.60;;;;;;;18.00;41.05;100500.66;4940474;29;20047;-81
2023/09/20 04:55:51;;;;;;;3.70;1.67;;;;;;;18.00;41.22;100503.41;4942760;29;20531;-82
2023/09/20 04:58:20;;;;;;;3.20;1.67;;;;;;;17.99;41.38;100496.16;4937539;29;20271;-82
2023/09/20 05:00:49;;;;;;;4.90;1.70;;;;;;;18.00;41.28;100508.09;4934873;29;20051;-84
2023/09/20 05:03:17;;;;;;;3.05;1.30;;;;;;;17.97;41.30;100508.50;4927762;29;20080;-84
2023/09/20 05:05:47;;;;;;;2.75;1.42;;;;;;;17.96;41.42;100513.19;4922522;29;20067;-82
2023/09/20 05:08:19;;;;;;;3.10;1.30;;;;;;;17.95;41.21;100507.81;4924581;29;20593;-81
2023/09/20 05:10:48;;;;;;;3.53;1.80;;;;;;;17.93;41.45;100510.78;4931315;29;20083;-82
2023/09/20 05:13:17;;;;;;;3.53;1.40;;;;;;;17.93;41.29;100505.25;4923917;29;20047;-83
2023/09/20 05:15:45;;;;;;;4.00;1.60;;;;;;;17.92;41.67;100514.59;4921886;29;20047;-84
2023/09/20 05:18:15;;;;;;;2.97;1.52;;;;;;;17.93;41.92;100513.53;4926491;29;20743;-84
2023/09/20 05:20:45;;;;;;;3.33;1.50;;;;;;;17.92;41.62;100513.72;4926918;29;20087;-83
2023/09/20 05:23:13;;;;;;;2.63;1.35;;;;;;;17.90;42.00;100502.84;4926517;29;20047;-83
2023/09/20 05:25:41;;;;;;;4.15;1.60;;;;;;;17.90;41.70;100494.53;4924505;29;20051;-82
2023/09/20 05:28:09;;;;;;;2.95;1.40;;;;;;;17.90;41.98;100500.06;4929568;29;20120;-84
2023/09/20 05:30:38;;;;;;;3.33;1.40;;;;;;;17.90;41.59;100496.44;4925226;28;20044;-83
2023/09/20 05:33:07;;;;;;;3.13;1.33;;;;;;;17.90;41.98;100494.53;4922503;29;20056;-82
2023/09/20 05:35:38;;;;;;;4.57;1.50;;;;;;;17.93;41.81;100487.75;4916872;29;20052;-83
2023/09/20 05:38:06;;;;;;;3.17;1.38;;;;;;;17.90;42.24;100488.13;4922439;29;20178;-82
2023/09/20 05:40:35;;;;;;;3.40;1.77;;;;;;;17.88;41.72;100488.34;4934660;29;20059;-84
2023/09/20 05:43:04;;;;;;;3.35;1.50;;;;;;;17.88;42.45;100488.34;4962588;28;20047;-81
2023/09/20 05:45:32;;;;;;;3.00;1.40;;;;;;;17.87;42.38;100483.00;4932209;28;20052;-82
2023/09/20 05:48:01;;;;;;;3.15;1.60;;;;;;;17.89;41.88;100486.44;4917313;29;20191;-82
2023/09/20 05:50:34;;;;;;;3.20;1.50;;;;;;;17.90;41.92;100483.47;4918961;29;20039;-85
2023/09/20 05:53:06;;;;;;;3.15;1.90;;;;;;;17.91;42.67;100479.66;4926497;29;20083;-83
2023/09/20 05:55:37;;;;;;;4.65;2.13;;;;;;;17.93;42.12;100480.31;4920744;29;20070;-83
2023/09/20 05:58:06;;;;;;;3.67;2.03;;;;;;;17.90;42.02;100479.81;4920763;29;20253;-83
2023/09/20 06:00:35;;;;;;;3.42;1.92;;;;;;;17.92;42.32;100484.13;4916815;29;20132;-84
2023/09/20 06:03:04;;;;;;;3.90;2.20;;;;;;;17.94;42.54;100486.72;4916212;29;20051;-83
2023/09/20 06:05:35;;;;;;;3.78;2.03;;;;;;;17.93;42.25;100491.41;4921887;28;20051;-82
2023/09/20 06:08:06;;;;;;;5.65;2.00;;;;;;;17.96;42.57;100487.41;4924117;29;20333;-84
2023/09/20 06:10:35;;;;;;;3.55;1.88;;;;;;;17.94;42.74;100476.50;4919989;29;20081;-83
2023/09/20 06:13:05;;;;;;;4.32;1.83;;;;;;;17.95;42.65;100481.00;4941428;28;20055;-82
2023/09/20 06:15:33;;;;;;;4.70;1.98;;;;;;;17.94;42.79;100473.75;4909754;29;20054;-79
2023/09/20 06:18:01;;;;;;;5.78;2.42;;;;;;;17.96;42.48;100474.41;4909207;29;20046;-78
2023/09/20 06:20:29;;;;;;;4.53;2.38;;;;;;;17.96;42.56;100470.78;4909200;29;20087;-77
2023/09/20 06:22:57;;;;;;;3.38;1.92;;;;;;;17.96;42.79;100471.63;4927346;28;20048;-78
2023/09/20 06:25:26;;;;;;;4.68;2.00;;;;;;;17.99;42.43;100476.78;4909583;29;20055;-78
2023/09/20 06:27:54;;;;;;;3.47;1.55;;;;;;;17.97;42.61;100476.13;4927485;28;20419;-78
2023/09/20 06:30:24;;;;;;;3.90;2.00;;;;;;;17.96;42.84;100479.94;4908412;29;20730;-79
2023/09/20 06:32:52;;;;;;;2.90;1.70;;;;;;;17.99;42.92;100479.53;4939232;29;20538;-78
2023/09/20 06:35:22;;;;;;;3.00;1.85;;;;;;;18.00;42.60;100480.41;4930117;29;20063;-78
2023/09/20 06:37:51;;;;;;;3.30;1.70;;;;;;;18.00;43.11;100475.72;4946105;29;20435;-78
2023/09/20 06:40:22;;;;;;;4.00;1.77;;;;;;;18.01;43.01;100477.44;4931592;29;20522;-78
2023/09/20 06:42:52;;;;;;;4.30;1.77;;;;;;;18.04;42.80;100482.63;4909656;29;20591;-78
2023/09/20 06:45:22;;;;;;;3.05;1.55;;;;;;;18.05;42.64;100483.47;4907806;29;20059;-76
2023/09/20 06:47:50;;;;;;;4.05;1.65;;;;;;;18.05;43.24;100492.66;4924691;29;20435;-77
2023/09/20 06:50:19;;;;;;;3.10;1.60;;;;;;;18.09;43.03;100490.34;4905665;29;20048;-77
2023/09/20 06:52:47;;;;;;;3.28;1.80;;;;;;;18.11;43.57;100483.56;4925339;29;20059;-77
2023/09/20 06:55:17;;;;;;;4.45;1.77;;;;;;;18.15;43.18;100500.63;4906279;29;20058;-77
2023/09/20 06:57:47;;;;;;;3.78;1.90;;;;;;;18.21;43.43;100493.47;4919473;29;20055;-77
2023/09/20 07:00:21;;;;;;;3.40;1.95;;;;;;;18.27;43.06;100488.03;4906162;28;20051;-77
2023/09/20 07:02:55;;;;;;;3.67;1.60;;;;;;;18.29;43.36;100479.53;4936245;28;20669;-77
2023/09/20 07:05:27;;;;;;;3.00;1.25;;;;;;;18.36;43.40;100486.00;4907458;29;20416;-77
2023/09/20 07:07:58;;;;;;;2.88;1.52;;;;;;;18.42;43.34;100487.97;4910228;29;20106;-77
2023/09/20 07:10:28;;;;;;;3.00;1.45;;;;;;;18.48;42.98;100495.50;4925256;28;20599;-77
2023/09/20 07:12:56;;;;;;;3.28;1.60;;;;;;;18.54;43.00;100492.00;4907385;29;20162;-77
2023/09/20 07:15:28;;;;;;;3.53;1.80;;;;;;;18.60;42.78;100488.44;4923244;28;20055;-77
2023/09/20 07:18:11;;;;;;;4.22;1.70;;;;;;;18.60;42.95;100488.44;4924872;29;20051;-79
2023/09/20 07:20:40;;;;;;;3.97;1.70;;;;;;;18.66;42.70;100492.34;4926921;29;20062;-77
2023/09/20 07:23:12;;;;;;;3.88;1.77;;;;;;;18.67;42.86;100492.16;4925824;29;20058;-77
2023/09/20 07:25:41;;;;;;;3.78;1.60;;;;;;;18.71;42.24;100487.09;4925563;29;20078;-77
2023/09/20 07:28:09;;;;;;;3.28;1.30;;;;;;;18.71;42.35;100485.19;4924384;29;20052;-77
2023/09/20 07:30:44;;;;;;;3.15;1.50;;;;;;;18.73;42.46;100487.72;4921066;29;20055;-77
2023/09/20 07:33:19;;;;;;;3.28;1.60;;;;;;;18.69;41.96;100487.28;4925192;29;20058;-77
2023/09/20 07:35:48;;;;;;;3.33;1.55;;;;;;;18.67;42.01;100481.06;4924671;28;20079;-77
2023/09/20 07:38:25;;;;;;;2.38;1.50;;;;;;;18.66;42.34;100487.66;4924944;29;20051;-77
2023/09/20 07:41:02;;;;;;;3.15;1.55;;;;;;;18.69;42.38;100495.59;4924761;29;20051;-76
2023/09/20 07:43:30;;;;;;;2.63;1.50;;;;;;;18.62;42.04;100486.34;4921079;29;20123;-77
2023/09/20 07:46:06;;;;;;;2.90;1.20;;;;;;;18.65;42.26;100487.84;4925426;29;20120;-77
2023/09/20 07:48:37;;;;;;;3.47;1.50;;;;;;;18.61;42.35;100481.00;4908384;29;20114;-77
2023/09/20 07:51:10;;;;;;;5.03;1.70;;;;;;;18.58;42.26;100475.84;4907396;29;20047;-77
2023/09/20 07:53:42;;;;;;;3.08;1.52;;;;;;;18.58;42.10;100478.59;4922915;29;20110;-77
2023/09/20 07:56:11;;;;;;;3.60;1.55;;;;;;;18.57;42.50;100472.22;4929082;28;20043;-77
2023/09/20 07:58:41;;;;;;;3.35;1.35;;;;;;;18.57;42.37;100482.44;4909944;29;20059;-77
2023/09/20 08:01:18;;;;;;;2.90;1.60;;;;;;;18.58;42.19;100482.25;4913235;29;20157;-77
2023/09/20 08:03:50;;;;;;;3.33;1.40;;;;;;;18.55;42.38;100482.66;4908186;29;20277;-77
2023/09/20 08:06:21;;;;;;;2.90;1.58;;;;;;;18.57;42.36;100480.53;4933033;29;20051;-78
2023/09/20 08:08:49;;;;;;;3.10;1.25;;;;;;;18.57;42.33;100483.28;4915071;29;20059;-78
2023/09/20 08:11:18;;;;;;;3.33;1.70;;;;;;;18.57;42.68;100486.06;4932004;29;20538;-78
2023/09/20 08:13:50;;;;;;;3.53;1.60;;;;;;;18.59;42.38;100478.41;4927097;28;20067;-77
2023/09/20 08:16:20;;;;;;;2.53;1.50;;;;;;;18.62;42.84;100482.72;4926774;29;20051;-78
2023/09/20 08:19:03;;;;;;;3.08;1.33;;;;;;;18.60;42.88;100490.38;4943576;29;20439;-77
2023/09/20 08:21:32;;;;;;;3.70;1.25;;;;;;;18.60;42.68;100491.22;4921640;29;20051;-76
2023/09/20 09:00:24;;;;;;;3.08;1.30;;;;;;;18.83;43.13;100510.44;4931468;28;20048;-78
2023/09/20 09:02:56;;;;;;;2.95;1.33;;;;;;;18.86;43.03;100513.69;4913832;29;20055;-78
2023/09/20 09:05:27;;;;;;;3.88;1.55;;;;;;;18.90;43.12;100516.91;4916551;29;20051;-78
2023/09/20 09:07:57;;;;;;;2.78;1.40;;;;;;;18.92;42.95;100505.63;4912613;29;20524;-79
2023/09/20 09:10:26;;;;;;;2.83;1.40;;;;;;;18.94;43.23;100509.09;4916198;29;20113;-78
2023/09/20 09:12:55;;;;;;;3.67;1.45;;;;;;;18.98;43.05;100507.63;4912816;29;20526;-77
2023/09/20 09:15:24;;;;;;;3.65;1.55;;;;;;;19.00;42.95;100500.81;4913185;29;20952;-78
2023/09/20 09:17:52;;;;;;;5.15;1.50;;;;;;;19.02;43.20;100498.72;4915023;29;20137;-79
2023/09/20 09:20:21;;;;;;;2.63;1.17;;;;;;;19.04;42.80;100502.16;4913714;29;20195;-77
2023/09/20 09:22:50;;;;;;;3.53;1.40;;;;;;;19.09;42.81;100501.53;4915340;28;20158;-78
2023/09/20 09:25:20;;;;;;;3.92;1.75;;;;;;;19.10;42.88;100503.28;4911909;29;20047;-79
2023/09/20 09:27:48;;;;;;;2.45;1.35;;;;;;;19.11;42.84;100491.97;4916095;29;20292;-79
2023/09/20 09:30:18;;;;;;;2.95;1.20;;;;;;;19.17;43.15;100501.41;4915814;29;20055;-78
2023/09/20 09:32:47;;;;;;;1.95;1.13;;;;;;;19.19;42.73;100490.97;4931661;29;20059;-79
2023/09/20 09:35:18;;;;;;;2.78;1.23;;;;;;;19.22;43.26;100487.81;4915945;29;20047;-77
2023/09/20 09:38:02;;;;;;;3.67;1.10;;;;;;;19.26;42.88;100487.25;4915603;29;20055;-78
2023/09/20 09:40:30;;;;;;;3.03;1.40;;;;;;;19.28;43.10;100500.91;4916380;29;20062;-78
2023/09/20 09:43:11;;;;;;;2.88;1.02;;;;;;;19.37;42.92;100491.38;4918101;29;20066;-77
2023/09/20 09:45:40;;;;;;;3.55;1.30;;;;;;;19.40;43.06;100493.75;4916913;29;20055;-79
2023/09/20 09:48:08;;;;;;;2.90;1.33;;;;;;;19.48;42.96;100492.72;4915602;29;20052;-78
2023/09/20 09:50:38;;;;;;;3.25;1.35;;;;;;;19.52;42.86;100483.81;4933864;29;20481;-78
2023/09/20 09:53:08;;;;;;;2.63;1.20;;;;;;;19.63;42.99;100480.47;4915589;29;20067;-78
2023/09/20 09:55:38;;;;;;;2.45;1.23;;;;;;;19.70;43.03;100483.31;4918754;28;20055;-78
2023/09/20 09:58:08;;;;;;;2.15;1.23;;;;;;;19.78;43.31;100477.59;4915543;29;20055;-78
2023/09/20 10:00:37;;;;;;;2.25;1.25;;;;;;;19.88;42.99;100479.97;4915695;28;20047;-78
2023/09/20 10:03:17;;;;;;;2.92;1.30;;;;;;;19.99;42.49;100479.44;4932129;29;20055;-78
2023/09/20 10:05:47;;;;;;;2.85;1.38;;;;;;;20.06;42.76;100473.91;4931290;29;20586;-78
2023/09/20 10:08:21;;;;;;;3.45;1.40;;;;;;;20.16;42.63;100474.41;4942034;29;20646;-79
2023/09/20 10:10:50;;;;;;;3.88;1.40;;;;;;;20.21;42.60;100474.63;4921216;29;20069;-79
2023/09/20 10:13:18;;;;;;;3.35;1.30;;;;;;;20.30;42.49;100467.84;4929680;28;20043;-79
2023/09/20 10:15:46;;;;;;;2.33;1.35;;;;;;;20.39;42.54;100472.16;4916464;29;20083;-78
2023/09/20 10:18:14;;;;;;;3.50;1.38;;;;;;;20.46;42.30;100474.94;4936988;29;20309;-79
2023/09/20 10:20:57;;;;;;;2.40;1.23;;;;;;;20.55;41.83;100466.22;4925054;29;20809;-78
2023/09/20 10:23:27;;;;;;;2.70;1.25;;;;;;;20.64;41.95;100467.78;4934506;29;20058;-77
2023/09/20 10:26:00;;;;;;;2.80;1.25;;;;;;;20.72;42.17;100464.81;4956186;28;20798;-77
2023/09/20 10:28:37;;;;;;;2.28;1.10;;;;;;;20.80;41.79;100474.88;4934521;29;20748;-77
2023/09/20 10:31:06;;;;;;;2.80;1.30;;;;;;;20.85;41.83;100477.03;4914717;29;20058;-78
2023/09/20 10:33:45;;;;;;;1.77;0.98;;;;;;;20.92;40.66;100477.91;4914089;28;20419;-77
2023/09/20 10:36:18;;;;;;;2.08;0.98;;;;;;;20.95;41.00;100467.19;4914126;29;20051;-77
2023/09/20 10:38:48;;;;;;;2.03;1.00;;;;;;;21.03;40.78;100460.56;4933990;29;20796;-78
2023/09/20 10:41:17;;;;;;;2.38;1.00;;;;;;;21.07;40.62;100457.16;4920089;29;20067;-77
2023/09/20 10:43:49;;;;;;;1.70;0.98;;;;;;;21.14;40.66;100451.59;4917684;28;20184;-78
2023/09/20 10:46:22;;;;;;;2.03;1.10;;;;;;;21.20;40.49;100453.50;4927465;29;20114;-78
2023/09/20 10:48:52;;;;;;;1.67;0.70;;;;;;;21.27;40.59;100454.44;4922445;29;20063;-78
2023/09/20 10:51:48;;;;;;;1.42;0.80;;;;;;;21.36;39.81;100446.69;4930288;29;20047;-78
2023/09/20 10:54:24;;;;;;;1.90;0.82;;;;;;;21.46;39.83;100442.41;4918572;29;20122;-79
2023/09/20 10:57:06;;;;;;;1.88;0.98;;;;;;;21.55;39.75;100443.03;4933677;29;20670;-77
2023/09/20 10:59:36;;;;;;;2.13;1.00;;;;;;;21.64;39.82;100438.09;4938013;29;20051;-78
2023/09/20 11:02:08;;;;;;;1.90;1.00;;;;;;;21.74;39.33;100432.94;4941087;28;20048;-79
2023/09/20 11:04:40;;;;;;;1.20;0.90;;;;;;;21.82;39.10;100429.91;4924595;28;20051;-78
2023/09/20 11:07:09;;;;;;;2.72;0.98;;;;;;;21.86;39.10;100437.59;4922632;29;20102;-79
2023/09/20 11:09:39;;;;;;;2.60;1.00;;;;;;;21.98;38.82;100425.81;4922989;29;20075;-79
2023/09/20 11:12:08;;;;;;;1.90;0.80;;;;;;;22.04;38.43;100427.72;4925333;29;20048;-79
2023/09/20 11:14:37;;;;;;;1.40;0.80;;;;;;;22.10;38.38;100430.47;4928467;29;20056;-79
2023/09/20 11:17:09;;;;;;;3.30;1.00;;;;;;;22.15;37.94;100425.13;4945801;28;20230;-79
2023/09/20 11:20:13;;;;;;;1.98;1.00;;;;;;;22.19;36.95;100433.88;4954233;28;20064;-86
2023/09/20 11:29:33;;;;;;;1.88;0.90;;;;;;;22.25;36.59;100416.28;4913508;28;20051;-86
2023/09/20 11:32:48;;;;;;;1.55;0.90;;;;;;;22.30;36.24;100413.69;4954785;28;20082;-86
2023/09/20 11:43:41;;;;;;;2.08;0.80;;;;;;;22.38;35.50;100415.34;4905516;29;20056;-84
2023/09/20 11:46:10;;;;;;;2.20;0.90;;;;;;;22.39;36.04;100414.28;4887127;29;20047;-85
2023/09/20 11:48:40;;;;;;;2.00;1.00;;;;;;;22.44;35.72;100403.28;4930466;28;20073;-85
2023/09/20 11:51:10;;;;;;;2.10;0.85;;;;;;;22.48;35.87;100390.63;4962553;28;20133;-83
2023/09/20 11:53:38;;;;;;;1.70;0.80;;;;;;;22.51;35.99;100402.19;4926710;29;20146;-83
2023/09/20 11:56:06;;;;;;;2.33;0.98;;;;;;;22.56;35.95;100391.25;4925966;29;20067;-84
2023/09/20 11:58:37;;;;;;;1.65;0.90;;;;;;;22.61;35.76;100387.78;4917089;29;20055;-85
2023/09/20 12:01:13;;;;;;;3.08;0.98;;;;;;;22.69;35.44;100379.13;4924004;29;20598;-87
2023/09/20 12:03:41;;;;;;;2.30;1.00;;;;;;;22.74;35.67;100375.69;4932243;29;20466;-84
2023/09/20 12:06:10;;;;;;;2.00;0.95;;;;;;;22.81;35.34;100377.34;4930742;29;20074;-84
2023/09/20 12:08:38;;;;;;;2.65;1.23;;;;;;;22.86;35.32;100380.28;4932399;29;20830;-83
2023/09/20 12:11:07;;;;;;;1.48;0.82;;;;;;;22.91;35.34;100374.06;4934264;29;20214;-83
2023/09/20 12:13:35;;;;;;;2.70;0.98;;;;;;;22.98;35.10;100367.31;4947612;29;20048;-86
2023/09/20 12:16:04;;;;;;;1.13;0.80;;;;;;;23.03;34.70;100375.84;4932775;29;20058;-86
2023/09/20 12:18:33;;;;;;;2.85;1.00;;;;;;;23.10;34.92;100364.63;4935828;29;20098;-83
2023/09/20 12:21:01;;;;;;;2.33;1.00;;;;;;;23.13;34.94;100357.75;4932827;29;20048;-82
2023/09/20 12:23:36;;;;;;;2.42;0.77;;;;;;;23.18;34.74;100349.56;4914302;29;20059;-86
2023/09/20 12:26:28;;;;;;;2.03;1.00;;;;;;;23.24;34.43;100359.84;4900117;29;20078;-85
2023/09/20 12:28:56;;;;;;;1.33;0.80;;;;;;;23.29;34.31;100346.03;4944839;28;20062;-85
2023/09/20 12:31:25;;;;;;;2.83;1.05;;;;;;;23.34;33.96;100337.78;4932444;29;20413;-83